createdAt,value
2023-06-10T00:04:59.198Z,73
2023-06-10T00:10:05.221Z,73
2023-06-10T00:15:11.553Z,73
2023-06-10T00:20:17.344Z,74
2023-06-10T00:25:23.401Z,74
2023-06-10T00:30:29.472Z,74
2023-06-10T00:35:35.524Z,74
2023-06-10T00:40:41.591Z,74
2023-06-10T00:45:47.699Z,74
2023-06-10T00:50:53.723Z,74
2023-06-10T00:55:59.813Z,74
2023-06-10T01:01:07.783Z,74
2023-06-10T01:06:15.558Z,74
2023-06-10T01:11:19.842Z,74
2023-06-10T01:16:25.984Z,74
2023-06-10T01:21:34.404Z,75
2023-06-10T01:26:38.015Z,75
2023-06-10T01:31:44.175Z,75
2023-06-10T01:36:50.156Z,75
2023-06-10T01:41:56.212Z,75
2023-06-10T01:47:02.381Z,76
2023-06-10T01:52:08.364Z,76
2023-06-10T01:57:14.396Z,76
2023-06-10T02:02:20.633Z,77
2023-06-10T02:07:26.522Z,77
2023-06-10T02:12:32.575Z,77
2023-06-10T02:17:38.860Z,78
2023-06-10T02:22:44.719Z,78
2023-06-10T02:27:50.765Z,78
2023-06-10T02:32:56.843Z,79
2023-06-10T02:38:02.945Z,79
2023-06-10T02:43:08.973Z,79
2023-06-10T02:48:15.056Z,79
2023-06-10T02:53:21.094Z,79
2023-06-10T02:58:27.181Z,80
2023-06-10T03:03:33.247Z,80
2023-06-10T03:08:39.303Z,80
2023-06-10T03:13:45.379Z,81
2023-06-10T03:18:51.492Z,81
2023-06-10T03:23:57.535Z,81
2023-06-10T03:29:03.539Z,81
2023-06-10T03:34:09.594Z,82
2023-06-10T03:39:15.670Z,82
2023-06-10T03:44:21.753Z,82
2023-06-10T03:54:33.875Z,83
2023-06-10T03:59:39.948Z,84
2023-06-10T04:04:45.995Z,84
2023-06-10T04:09:52.022Z,84
2023-06-10T04:20:04.206Z,85
2023-06-10T04:25:10.570Z,86
2023-06-10T04:30:16.297Z,85
2023-06-10T04:35:22.369Z,85
2023-06-10T04:40:28.429Z,86
2023-06-10T04:45:34.519Z,86
2023-06-10T04:50:40.557Z,86
2023-06-10T04:55:46.623Z,87
2023-06-10T05:00:52.705Z,87
2023-06-10T05:11:04.796Z,88
2023-06-10T05:16:10.893Z,87
2023-06-10T05:21:16.937Z,88
2023-06-10T05:26:22.991Z,89
2023-06-10T05:31:29.066Z,90
2023-06-10T05:36:35.133Z,89
2023-06-10T05:41:41.161Z,89
2023-06-10T05:46:47.255Z,89
2023-06-10T05:51:53.294Z,88
2023-06-10T05:56:59.352Z,87
2023-06-10T06:02:05.506Z,86
2023-06-10T06:07:11.506Z,86
2023-06-10T06:12:17.544Z,86
2023-06-10T06:17:23.674Z,84
2023-06-10T06:22:29.700Z,84
2023-06-10T06:27:35.746Z,83
2023-06-10T06:32:41.914Z,84
2023-06-10T06:37:47.899Z,84
2023-06-10T06:42:53.962Z,84
2023-06-10T06:48:00.043Z,84
2023-06-10T06:53:06.097Z,84
2023-06-10T06:58:12.137Z,83
2023-06-10T07:03:18.201Z,83
2023-06-10T07:08:24.273Z,88
2023-06-10T07:13:30.308Z,94
2023-06-10T07:18:36.372Z,97
2023-06-10T07:23:42.457Z,101
2023-06-10T07:28:48.516Z,107
2023-06-10T07:33:54.572Z,110
2023-06-10T07:39:00.635Z,111
2023-06-10T07:44:06.684Z,107
2023-06-10T07:49:12.748Z,108
2023-06-10T07:54:18.809Z,112
2023-06-10T07:59:24.888Z,112
2023-06-10T08:04:31.048Z,108
2023-06-10T08:09:37.038Z,107
2023-06-10T08:19:49.148Z,110
2023-06-10T08:24:55.222Z,110
2023-06-10T08:30:01.247Z,110
2023-06-10T08:35:07.573Z,104
2023-06-10T08:40:13.392Z,96
2023-06-10T08:45:19.451Z,91
2023-06-10T08:50:25.523Z,88
2023-06-10T08:55:32.758Z,86
2023-06-10T09:00:37.678Z,85
2023-06-10T09:05:43.708Z,83
2023-06-10T09:10:49.760Z,79
2023-06-10T09:15:55.881Z,78
2023-06-10T09:21:01.905Z,77
2023-06-10T09:26:10.571Z,79
2023-06-10T09:36:21.977Z,79
2023-06-10T09:41:27.984Z,79
2023-06-10T09:46:34.147Z,77
2023-06-10T09:51:40.118Z,74
2023-06-10T09:56:46.167Z,72
2023-06-10T10:01:52.263Z,68
2023-06-10T10:06:58.329Z,69
2023-06-10T10:12:04.441Z,70
2023-06-10T10:17:10.500Z,71
2023-06-10T10:22:16.495Z,69
2023-06-10T10:27:22.565Z,68
2023-06-10T10:32:28.683Z,68
2023-06-10T10:37:36.554Z,65
2023-06-10T10:42:42.588Z,66
2023-06-10T10:47:48.686Z,68
2023-06-10T10:52:54.735Z,70
2023-06-10T10:58:00.800Z,71
2023-06-10T11:03:10.147Z,74
2023-06-10T11:08:12.978Z,75
2023-06-10T11:13:18.984Z,76
2023-06-10T11:18:25.047Z,77
2023-06-10T11:23:31.128Z,76
2023-06-10T11:28:37.270Z,79
2023-06-10T11:33:43.283Z,77
2023-06-10T11:38:49.262Z,77
2023-06-10T11:43:55.325Z,80
2023-06-10T11:49:01.418Z,77
2023-06-10T11:54:07.455Z,76
2023-06-10T11:59:13.547Z,74
2023-06-10T12:04:19.936Z,71
2023-06-10T12:09:27.317Z,71
2023-06-10T12:24:45.723Z,67
2023-06-10T12:29:51.806Z,67
2023-06-10T12:34:57.832Z,65
2023-06-10T12:40:03.930Z,63
2023-06-10T12:45:10.286Z,63
2023-06-10T12:55:22.075Z,65
2023-06-10T13:00:28.138Z,66
2023-06-10T13:05:34.185Z,66
2023-06-10T13:10:40.275Z,69
2023-06-10T13:15:46.402Z,69
2023-06-10T13:20:52.378Z,70
2023-06-10T13:31:06.412Z,74
2023-06-10T13:36:12.429Z,71
2023-06-10T13:41:18.486Z,72
2023-06-10T13:46:24.613Z,73
2023-06-10T13:51:30.617Z,75
2023-06-10T14:06:48.832Z,77
2023-06-10T14:11:54.848Z,74
2023-06-10T14:17:01.026Z,73
2023-06-10T14:22:08.859Z,74
2023-06-10T14:27:14.934Z,69
2023-06-10T14:32:21.087Z,67
2023-06-10T14:37:27.069Z,64
2023-06-10T14:42:33.088Z,62
2023-06-10T14:47:39.194Z,60
2023-06-10T14:52:45.242Z,58
2023-06-10T14:57:53.162Z,56
2023-06-10T15:02:59.257Z,54
2023-06-10T15:08:05.292Z,53
2023-06-10T15:13:11.338Z,52
2023-06-10T15:18:17.520Z,50
2023-06-10T15:23:23.461Z,49
2023-06-10T15:28:29.576Z,47
2023-06-10T15:33:35.578Z,46
2023-06-10T15:43:47.721Z,44
2023-06-10T15:48:53.794Z,44
2023-06-10T15:53:59.821Z,43
2023-06-10T15:59:05.901Z,43
2023-06-10T16:04:12.034Z,42
2023-06-10T16:09:18.035Z,42
2023-06-10T16:19:30.118Z,41
2023-06-10T16:24:36.189Z,41
2023-06-10T16:29:42.293Z,40
2023-06-10T16:34:48.352Z,40
2023-06-10T16:39:54.433Z,40
2023-06-10T16:45:00.455Z,40
2023-06-10T16:50:06.502Z,40
2023-06-10T16:55:12.774Z,39
2023-06-10T17:00:18.629Z,39
2023-06-10T17:05:24.735Z,39
2023-06-10T17:10:30.744Z,39
2023-06-10T17:15:36.868Z,39
2023-06-10T17:20:42.891Z,40
2023-06-10T17:25:48.932Z,40
2023-06-10T17:30:54.986Z,40
2023-06-10T17:36:01.078Z,40
2023-06-10T17:46:13.180Z,40
2023-06-10T17:51:19.237Z,41
2023-06-10T18:01:31.371Z,41
2023-06-10T18:06:37.415Z,41
2023-06-10T18:11:43.499Z,42
2023-06-10T18:16:49.669Z,42
2023-06-10T18:21:55.630Z,43
2023-06-10T18:27:01.673Z,43
2023-06-10T18:32:07.852Z,43
2023-06-10T18:37:13.791Z,44
2023-06-10T18:42:19.865Z,44
2023-06-10T18:47:25.948Z,44
2023-06-10T18:52:31.978Z,45
2023-06-10T18:57:38.065Z,45
2023-06-10T19:02:44.180Z,45
2023-06-10T19:07:50.367Z,45
2023-06-10T19:12:56.236Z,46
2023-06-10T19:18:02.406Z,46
2023-06-10T19:23:08.365Z,46
2023-06-10T19:28:14.408Z,47
2023-06-10T19:33:20.483Z,47
2023-06-10T19:38:26.538Z,47
2023-06-10T19:43:32.653Z,47
2023-06-10T19:48:38.675Z,48
2023-06-10T19:53:46.588Z,48
2023-06-10T19:58:52.666Z,48
2023-06-10T20:03:58.767Z,49
2023-06-10T20:09:04.807Z,49
2023-06-10T20:14:10.851Z,49
2023-06-10T20:19:16.912Z,50
2023-06-10T20:24:23.160Z,50
2023-06-10T20:29:29.025Z,50
2023-06-10T20:34:35.102Z,50
2023-06-10T20:39:41.161Z,51
2023-06-10T20:44:47.226Z,51
2023-06-10T20:49:53.296Z,51
2023-06-10T20:54:59.328Z,52
2023-06-10T21:00:05.475Z,52
2023-06-10T21:05:11.637Z,53
2023-06-10T21:10:17.546Z,53
2023-06-10T21:15:25.501Z,54
2023-06-10T21:20:33.448Z,54
2023-06-10T21:25:39.473Z,54
2023-06-10T21:30:45.564Z,55
2023-06-10T21:35:51.587Z,55
2023-06-10T21:40:57.675Z,55
2023-06-10T21:46:03.743Z,55
2023-06-10T22:01:21.949Z,56
2023-06-10T22:06:27.974Z,56
2023-06-10T22:11:34.043Z,56
2023-06-10T22:16:40.159Z,57
2023-06-10T22:21:46.146Z,57
2023-06-10T22:32:00.168Z,58
2023-06-10T22:37:06.230Z,58
2023-06-10T22:42:12.572Z,58
2023-06-10T22:47:18.346Z,59
2023-06-10T22:52:24.400Z,59
2023-06-10T23:02:38.454Z,60
2023-06-10T23:07:44.464Z,60
2023-06-10T23:12:50.514Z,60
2023-06-10T23:17:58.510Z,60
2023-06-10T23:23:04.493Z,61
2023-06-10T23:28:10.554Z,61
2023-06-10T23:33:16.777Z,62
2023-06-10T23:38:24.575Z,62
2023-06-10T23:43:30.622Z,62
2023-06-10T23:48:36.695Z,62
2023-06-10T23:58:50.671Z,63
